sensor_id;sensor_type;location;lat;lon;timestamp;P1;durP1;ratioP1;P2;durP2;ratioP2
52848;SDS011;38714;53.180;5.812;2022-10-16T00:00:52;2.50;;;1.60;;
52848;SDS011;38714;53.180;5.812;2022-10-16T00:03:17;3.05;;;1.17;;
52848;SDS011;38714;53.180;5.812;2022-10-16T00:05:43;2.13;;;1.70;;
52848;SDS011;38714;53.180;5.812;2022-10-16T00:08:10;2.25;;;1.50;;
52848;SDS011;38714;53.180;5.812;2022-10-16T00:10:37;4.55;;;1.52;;
52848;SDS011;38714;53.180;5.812;2022-10-16T00:13:03;2.95;;;1.10;;
52848;SDS011;38714;53.180;5.812;2022-10-16T00:15:30;3.72;;;1.42;;
52848;SDS011;38714;53.180;5.812;2022-10-16T00:17:57;1.58;;;1.42;;
52848;SDS011;38714;53.180;5.812;2022-10-16T00:20:23;3.25;;;1.17;;
52848;SDS011;38714;53.180;5.812;2022-10-16T00:22:48;5.85;;;1.45;;
52848;SDS011;38714;53.180;5.812;2022-10-16T00:25:14;3.70;;;1.70;;
52848;SDS011;38714;53.180;5.812;2022-10-16T00:27:40;3.67;;;1.23;;
52848;SDS011;38714;53.180;5.812;2022-10-16T00:30:05;3.53;;;2.10;;
52848;SDS011;38714;53.180;5.812;2022-10-16T00:32:33;8.13;;;1.80;;
52848;SDS011;38714;53.180;5.812;2022-10-16T00:34:58;1.42;;;1.00;;
52848;SDS011;38714;53.180;5.812;2022-10-16T00:37:25;5.75;;;1.80;;
52848;SDS011;38714;53.180;5.812;2022-10-16T00:39:50;7.20;;;1.48;;
52848;SDS011;38714;53.180;5.812;2022-10-16T00:42:16;3.03;;;1.13;;
52848;SDS011;38714;53.180;5.812;2022-10-16T00:47:21;1.77;;;1.13;;
52848;SDS011;38714;53.180;5.812;2022-10-16T00:50:00;4.10;;;1.55;;
52848;SDS011;38714;53.180;5.812;2022-10-16T00:52:47;3.88;;;1.35;;
52848;SDS011;38714;53.180;5.812;2022-10-16T00:55:15;3.95;;;1.48;;
52848;SDS011;38714;53.180;5.812;2022-10-16T00:57:41;1.45;;;1.10;;
52848;SDS011;38714;53.180;5.812;2022-10-16T01:00:08;4.07;;;2.17;;
52848;SDS011;38714;53.180;5.812;2022-10-16T01:02:35;2.30;;;1.20;;
52848;SDS011;38714;53.180;5.812;2022-10-16T01:05:01;1.63;;;1.00;;
52848;SDS011;38714;53.180;5.812;2022-10-16T01:15:35;1.13;;;0.88;;
52848;SDS011;38714;53.180;5.812;2022-10-16T01:20:38;5.00;;;1.65;;
52848;SDS011;38714;53.180;5.812;2022-10-16T01:23:14;3.00;;;1.33;;
52848;SDS011;38714;53.180;5.812;2022-10-16T01:28:11;0.80;;;0.80;;
52848;SDS011;38714;53.180;5.812;2022-10-16T01:30:39;1.65;;;1.10;;
52848;SDS011;38714;53.180;5.812;2022-10-16T01:33:13;3.08;;;1.40;;
52848;SDS011;38714;53.180;5.812;2022-10-16T01:35:46;5.43;;;2.10;;
52848;SDS011;38714;53.180;5.812;2022-10-16T01:40:50;1.55;;;1.30;;
52848;SDS011;38714;53.180;5.812;2022-10-16T01:43:24;3.13;;;1.27;;
52848;SDS011;38714;53.180;5.812;2022-10-16T01:45:55;1.25;;;0.98;;
52848;SDS011;38714;53.180;5.812;2022-10-16T01:48:22;10.02;;;1.63;;
52848;SDS011;38714;53.180;5.812;2022-10-16T01:50:52;2.15;;;0.93;;
52848;SDS011;38714;53.180;5.812;2022-10-16T01:53:25;0.98;;;0.88;;
52848;SDS011;38714;53.180;5.812;2022-10-16T01:55:52;4.38;;;1.60;;
52848;SDS011;38714;53.180;5.812;2022-10-16T01:58:20;3.38;;;1.65;;
52848;SDS011;38714;53.180;5.812;2022-10-16T02:00:48;7.82;;;1.77;;
52848;SDS011;38714;53.180;5.812;2022-10-16T02:03:15;2.67;;;1.33;;
52848;SDS011;38714;53.180;5.812;2022-10-16T02:05:47;4.22;;;1.63;;
52848;SDS011;38714;53.180;5.812;2022-10-16T02:08:17;3.28;;;1.65;;
52848;SDS011;38714;53.180;5.812;2022-10-16T02:10:43;2.42;;;1.25;;
52848;SDS011;38714;53.180;5.812;2022-10-16T02:13:17;1.70;;;1.45;;
52848;SDS011;38714;53.180;5.812;2022-10-16T02:15:51;1.60;;;1.50;;
52848;SDS011;38714;53.180;5.812;2022-10-16T02:18:17;2.40;;;1.70;;
52848;SDS011;38714;53.180;5.812;2022-10-16T02:20:54;3.10;;;1.77;;
52848;SDS011;38714;53.180;5.812;2022-10-16T02:26:15;3.83;;;1.88;;
52848;SDS011;38714;53.180;5.812;2022-10-16T02:28:51;1.30;;;1.20;;
52848;SDS011;38714;53.180;5.812;2022-10-16T02:31:22;3.38;;;1.85;;
52848;SDS011;38714;53.180;5.812;2022-10-16T02:33:53;11.13;;;1.60;;
52848;SDS011;38714;53.180;5.812;2022-10-16T02:36:21;3.70;;;1.67;;
52848;SDS011;38714;53.180;5.812;2022-10-16T02:38:47;2.75;;;1.58;;
52848;SDS011;38714;53.180;5.812;2022-10-16T02:41:13;2.03;;;1.42;;
52848;SDS011;38714;53.180;5.812;2022-10-16T02:43:39;2.80;;;1.58;;
52848;SDS011;38714;53.180;5.812;2022-10-16T02:46:05;1.60;;;1.35;;
52848;SDS011;38714;53.180;5.812;2022-10-16T02:48:31;2.20;;;1.52;;
52848;SDS011;38714;53.180;5.812;2022-10-16T02:50:56;3.30;;;1.67;;
52848;SDS011;38714;53.180;5.812;2022-10-16T02:53:22;2.80;;;1.58;;
52848;SDS011;38714;53.180;5.812;2022-10-16T02:55:48;1.42;;;1.33;;
52848;SDS011;38714;53.180;5.812;2022-10-16T02:58:13;1.88;;;1.45;;
52848;SDS011;38714;53.180;5.812;2022-10-16T03:00:39;4.22;;;1.75;;
52848;SDS011;38714;53.180;5.812;2022-10-16T03:03:04;2.85;;;1.17;;
52848;SDS011;38714;53.180;5.812;2022-10-16T03:05:30;2.50;;;1.63;;
52848;SDS011;38714;53.180;5.812;2022-10-16T03:07:55;7.20;;;2.25;;
52848;SDS011;38714;53.180;5.812;2022-10-16T03:10:21;1.95;;;1.65;;
52848;SDS011;38714;53.180;5.812;2022-10-16T03:12:47;5.95;;;2.13;;
52848;SDS011;38714;53.180;5.812;2022-10-16T03:15:12;3.47;;;1.25;;
52848;SDS011;38714;53.180;5.812;2022-10-16T03:17:38;2.47;;;1.40;;
52848;SDS011;38714;53.180;5.812;2022-10-16T03:20:03;3.38;;;1.30;;
52848;SDS011;38714;53.180;5.812;2022-10-16T03:22:29;1.42;;;1.33;;
52848;SDS011;38714;53.180;5.812;2022-10-16T03:24:55;1.58;;;1.40;;
52848;SDS011;38714;53.180;5.812;2022-10-16T03:27:20;2.88;;;1.80;;
52848;SDS011;38714;53.180;5.812;2022-10-16T03:29:46;2.20;;;2.00;;
52848;SDS011;38714;53.180;5.812;2022-10-16T03:32:11;3.30;;;1.35;;
52848;SDS011;38714;53.180;5.812;2022-10-16T03:34:37;1.90;;;1.27;;
52848;SDS011;38714;53.180;5.812;2022-10-16T03:37:03;2.50;;;1.80;;
52848;SDS011;38714;53.180;5.812;2022-10-16T03:39:29;1.25;;;0.90;;
52848;SDS011;38714;53.180;5.812;2022-10-16T03:41:54;2.03;;;1.55;;
52848;SDS011;38714;53.180;5.812;2022-10-16T03:44:20;2.75;;;1.08;;
52848;SDS011;38714;53.180;5.812;2022-10-16T03:46:46;6.97;;;1.30;;
52848;SDS011;38714;53.180;5.812;2022-10-16T03:49:11;2.17;;;1.27;;
52848;SDS011;38714;53.180;5.812;2022-10-16T03:51:37;3.05;;;1.17;;
52848;SDS011;38714;53.180;5.812;2022-10-16T03:54:03;3.38;;;1.10;;
52848;SDS011;38714;53.180;5.812;2022-10-16T03:56:28;1.85;;;1.33;;
52848;SDS011;38714;53.180;5.812;2022-10-16T03:58:54;1.88;;;1.50;;
52848;SDS011;38714;53.180;5.812;2022-10-16T04:01:19;2.55;;;1.42;;
52848;SDS011;38714;53.180;5.812;2022-10-16T04:03:45;1.85;;;1.10;;
52848;SDS011;38714;53.180;5.812;2022-10-16T04:06:10;8.35;;;1.63;;
52848;SDS011;38714;53.180;5.812;2022-10-16T04:08:36;5.18;;;1.60;;
52848;SDS011;38714;53.180;5.812;2022-10-16T04:11:02;6.28;;;1.58;;
52848;SDS011;38714;53.180;5.812;2022-10-16T04:13:28;1.00;;;0.93;;
52848;SDS011;38714;53.180;5.812;2022-10-16T04:15:54;4.13;;;1.60;;
52848;SDS011;38714;53.180;5.812;2022-10-16T04:18:19;2.63;;;2.08;;
52848;SDS011;38714;53.180;5.812;2022-10-16T04:20:45;4.68;;;2.10;;
52848;SDS011;38714;53.180;5.812;2022-10-16T04:23:11;3.28;;;2.30;;
52848;SDS011;38714;53.180;5.812;2022-10-16T04:25:36;3.15;;;1.40;;
52848;SDS011;38714;53.180;5.812;2022-10-16T04:28:02;3.67;;;1.60;;
52848;SDS011;38714;53.180;5.812;2022-10-16T04:30:28;4.32;;;1.45;;
52848;SDS011;38714;53.180;5.812;2022-10-16T04:32:53;3.60;;;1.65;;
52848;SDS011;38714;53.180;5.812;2022-10-16T04:35:19;2.75;;;1.50;;
52848;SDS011;38714;53.180;5.812;2022-10-16T04:37:46;2.05;;;1.83;;
52848;SDS011;38714;53.180;5.812;2022-10-16T04:40:12;1.95;;;1.10;;
52848;SDS011;38714;53.180;5.812;2022-10-16T04:42:38;2.65;;;1.80;;
52848;SDS011;38714;53.180;5.812;2022-10-16T04:45:05;2.30;;;1.27;;
52848;SDS011;38714;53.180;5.812;2022-10-16T04:47:31;2.30;;;1.30;;
52848;SDS011;38714;53.180;5.812;2022-10-16T04:49:56;1.52;;;1.42;;
52848;SDS011;38714;53.180;5.812;2022-10-16T04:52:26;1.65;;;1.00;;
52848;SDS011;38714;53.180;5.812;2022-10-16T04:54:52;4.35;;;1.35;;
52848;SDS011;38714;53.180;5.812;2022-10-16T04:57:18;1.35;;;1.05;;
52848;SDS011;38714;53.180;5.812;2022-10-16T04:59:44;1.70;;;1.50;;
52848;SDS011;38714;53.180;5.812;2022-10-16T05:02:10;1.15;;;1.02;;
52848;SDS011;38714;53.180;5.812;2022-10-16T05:04:35;1.10;;;0.88;;
52848;SDS011;38714;53.180;5.812;2022-10-16T05:07:01;2.03;;;1.63;;
52848;SDS011;38714;53.180;5.812;2022-10-16T05:09:26;2.30;;;1.73;;
52848;SDS011;38714;53.180;5.812;2022-10-16T05:11:52;2.95;;;1.27;;
52848;SDS011;38714;53.180;5.812;2022-10-16T05:14:17;3.13;;;1.80;;
52848;SDS011;38714;53.180;5.812;2022-10-16T05:16:43;2.10;;;1.80;;
52848;SDS011;38714;53.180;5.812;2022-10-16T05:19:09;3.92;;;2.10;;
52848;SDS011;38714;53.180;5.812;2022-10-16T05:21:35;2.70;;;2.05;;
52848;SDS011;38714;53.180;5.812;2022-10-16T05:24:00;2.72;;;1.85;;
52848;SDS011;38714;53.180;5.812;2022-10-16T05:26:26;3.03;;;2.67;;
52848;SDS011;38714;53.180;5.812;2022-10-16T05:28:51;4.82;;;2.33;;
52848;SDS011;38714;53.180;5.812;2022-10-16T05:31:17;5.95;;;2.67;;
52848;SDS011;38714;53.180;5.812;2022-10-16T05:33:42;2.53;;;2.33;;
52848;SDS011;38714;53.180;5.812;2022-10-16T05:36:09;2.10;;;1.70;;
52848;SDS011;38714;53.180;5.812;2022-10-16T05:38:35;2.17;;;1.95;;
52848;SDS011;38714;53.180;5.812;2022-10-16T05:41:02;4.18;;;2.30;;
52848;SDS011;38714;53.180;5.812;2022-10-16T05:43:29;3.90;;;1.90;;
52848;SDS011;38714;53.180;5.812;2022-10-16T05:46:05;6.25;;;3.38;;
52848;SDS011;38714;53.180;5.812;2022-10-16T05:48:31;3.92;;;2.67;;
52848;SDS011;38714;53.180;5.812;2022-10-16T05:51:04;3.63;;;2.45;;
52848;SDS011;38714;53.180;5.812;2022-10-16T05:53:32;5.40;;;2.30;;
52848;SDS011;38714;53.180;5.812;2022-10-16T05:55:59;2.60;;;2.40;;
52848;SDS011;38714;53.180;5.812;2022-10-16T05:58:28;2.60;;;2.03;;
52848;SDS011;38714;53.180;5.812;2022-10-16T06:00:56;3.67;;;2.33;;
52848;SDS011;38714;53.180;5.812;2022-10-16T06:03:22;2.92;;;1.90;;
52848;SDS011;38714;53.180;5.812;2022-10-16T06:05:48;3.65;;;2.53;;
52848;SDS011;38714;53.180;5.812;2022-10-16T06:08:14;4.78;;;3.03;;
52848;SDS011;38714;53.180;5.812;2022-10-16T06:10:40;2.45;;;2.22;;
52848;SDS011;38714;53.180;5.812;2022-10-16T06:13:05;3.00;;;2.38;;
52848;SDS011;38714;53.180;5.812;2022-10-16T06:15:31;6.03;;;2.15;;
52848;SDS011;38714;53.180;5.812;2022-10-16T06:17:56;3.00;;;2.45;;
52848;SDS011;38714;53.180;5.812;2022-10-16T06:20:22;4.10;;;2.33;;
52848;SDS011;38714;53.180;5.812;2022-10-16T06:22:48;2.40;;;2.20;;
52848;SDS011;38714;53.180;5.812;2022-10-16T06:25:13;8.70;;;2.80;;
52848;SDS011;38714;53.180;5.812;2022-10-16T06:27:39;6.15;;;2.30;;
52848;SDS011;38714;53.180;5.812;2022-10-16T06:30:06;4.50;;;2.33;;
52848;SDS011;38714;53.180;5.812;2022-10-16T06:32:32;4.00;;;2.50;;
52848;SDS011;38714;53.180;5.812;2022-10-16T06:34:58;4.00;;;2.17;;
52848;SDS011;38714;53.180;5.812;2022-10-16T06:37:23;6.05;;;2.00;;
52848;SDS011;38714;53.180;5.812;2022-10-16T06:39:50;4.22;;;2.05;;
52848;SDS011;38714;53.180;5.812;2022-10-16T06:42:17;7.28;;;2.53;;
52848;SDS011;38714;53.180;5.812;2022-10-16T06:44:43;2.20;;;1.70;;
52848;SDS011;38714;53.180;5.812;2022-10-16T06:47:08;3.70;;;2.40;;
52848;SDS011;38714;53.180;5.812;2022-10-16T06:49:34;3.13;;;1.85;;
52848;SDS011;38714;53.180;5.812;2022-10-16T06:52:00;4.35;;;2.05;;
52848;SDS011;38714;53.180;5.812;2022-10-16T06:54:26;2.70;;;1.92;;
52848;SDS011;38714;53.180;5.812;2022-10-16T06:56:52;4.05;;;1.92;;
52848;SDS011;38714;53.180;5.812;2022-10-16T06:59:19;4.43;;;1.92;;
52848;SDS011;38714;53.180;5.812;2022-10-16T07:01:45;2.78;;;1.33;;
52848;SDS011;38714;53.180;5.812;2022-10-16T07:04:11;3.92;;;1.90;;
52848;SDS011;38714;53.180;5.812;2022-10-16T07:06:37;4.72;;;1.95;;
52848;SDS011;38714;53.180;5.812;2022-10-16T07:09:03;3.95;;;1.85;;
52848;SDS011;38714;53.180;5.812;2022-10-16T07:11:31;3.78;;;1.75;;
52848;SDS011;38714;53.180;5.812;2022-10-16T07:13:56;2.72;;;1.35;;
52848;SDS011;38714;53.180;5.812;2022-10-16T07:16:23;2.35;;;1.58;;
52848;SDS011;38714;53.180;5.812;2022-10-16T07:18:50;3.33;;;2.08;;
52848;SDS011;38714;53.180;5.812;2022-10-16T07:21:20;5.97;;;1.90;;
52848;SDS011;38714;53.180;5.812;2022-10-16T07:23:50;2.72;;;1.63;;
52848;SDS011;38714;53.180;5.812;2022-10-16T07:26:17;2.72;;;1.63;;
52848;SDS011;38714;53.180;5.812;2022-10-16T07:28:43;2.47;;;1.85;;
52848;SDS011;38714;53.180;5.812;2022-10-16T07:31:10;6.22;;;1.98;;
52848;SDS011;38714;53.180;5.812;2022-10-16T07:33:38;11.05;;;2.20;;
52848;SDS011;38714;53.180;5.812;2022-10-16T07:36:06;2.80;;;2.53;;
52848;SDS011;38714;53.180;5.812;2022-10-16T07:38:32;2.42;;;2.10;;
52848;SDS011;38714;53.180;5.812;2022-10-16T07:41:05;4.00;;;2.60;;
52848;SDS011;38714;53.180;5.812;2022-10-16T07:43:32;3.60;;;2.42;;
52848;SDS011;38714;53.180;5.812;2022-10-16T07:45:58;3.33;;;2.65;;
52848;SDS011;38714;53.180;5.812;2022-10-16T07:48:26;5.85;;;3.85;;
52848;SDS011;38714;53.180;5.812;2022-10-16T07:50:56;4.38;;;3.25;;
52848;SDS011;38714;53.180;5.812;2022-10-16T07:53:23;5.28;;;3.25;;
52848;SDS011;38714;53.180;5.812;2022-10-16T07:55:49;6.72;;;3.92;;
52848;SDS011;38714;53.180;5.812;2022-10-16T07:58:14;4.70;;;2.78;;
52848;SDS011;38714;53.180;5.812;2022-10-16T08:00:40;4.40;;;3.00;;
52848;SDS011;38714;53.180;5.812;2022-10-16T08:03:05;11.27;;;3.17;;
52848;SDS011;38714;53.180;5.812;2022-10-16T08:05:32;5.80;;;3.20;;
52848;SDS011;38714;53.180;5.812;2022-10-16T08:07:59;4.57;;;3.08;;
52848;SDS011;38714;53.180;5.812;2022-10-16T08:10:25;2.85;;;2.22;;
52848;SDS011;38714;53.180;5.812;2022-10-16T08:12:52;7.65;;;2.92;;
52848;SDS011;38714;53.180;5.812;2022-10-16T08:15:18;4.22;;;2.60;;
52848;SDS011;38714;53.180;5.812;2022-10-16T08:17:44;3.38;;;2.28;;
52848;SDS011;38714;53.180;5.812;2022-10-16T08:20:10;6.25;;;2.38;;
52848;SDS011;38714;53.180;5.812;2022-10-16T08:22:36;4.13;;;2.50;;
52848;SDS011;38714;53.180;5.812;2022-10-16T08:25:01;2.33;;;2.00;;
52848;SDS011;38714;53.180;5.812;2022-10-16T08:27:31;5.53;;;2.55;;
52848;SDS011;38714;53.180;5.812;2022-10-16T08:29:57;4.97;;;2.70;;
52848;SDS011;38714;53.180;5.812;2022-10-16T08:32:22;3.83;;;2.90;;
52848;SDS011;38714;53.180;5.812;2022-10-16T08:34:48;10.75;;;3.35;;
52848;SDS011;38714;53.180;5.812;2022-10-16T08:37:14;2.63;;;1.77;;
52848;SDS011;38714;53.180;5.812;2022-10-16T08:39:40;5.40;;;2.60;;
52848;SDS011;38714;53.180;5.812;2022-10-16T08:50:31;8.07;;;3.00;;
52848;SDS011;38714;53.180;5.812;2022-10-16T08:52:39;9.63;;;2.40;;
52848;SDS011;38714;53.180;5.812;2022-10-16T08:55:09;6.55;;;3.03;;
52848;SDS011;38714;53.180;5.812;2022-10-16T08:57:48;5.03;;;2.97;;
52848;SDS011;38714;53.180;5.812;2022-10-16T09:00:14;2.70;;;2.50;;
52848;SDS011;38714;53.180;5.812;2022-10-16T09:08:30;4.78;;;2.42;;
52848;SDS011;38714;53.180;5.812;2022-10-16T09:22:37;3.75;;;1.98;;
52848;SDS011;38714;53.180;5.812;2022-10-16T09:25:17;6.75;;;2.70;;
52848;SDS011;38714;53.180;5.812;2022-10-16T09:27:47;4.40;;;2.83;;
52848;SDS011;38714;53.180;5.812;2022-10-16T09:30:18;5.38;;;2.88;;
52848;SDS011;38714;53.180;5.812;2022-10-16T09:32:45;5.68;;;2.20;;
52848;SDS011;38714;53.180;5.812;2022-10-16T09:35:14;3.17;;;2.03;;
52848;SDS011;38714;53.180;5.812;2022-10-16T09:37:43;6.40;;;2.38;;
52848;SDS011;38714;53.180;5.812;2022-10-16T09:40:12;4.70;;;2.08;;
52848;SDS011;38714;53.180;5.812;2022-10-16T09:42:38;5.82;;;2.33;;
52848;SDS011;38714;53.180;5.812;2022-10-16T09:45:04;3.20;;;2.25;;
52848;SDS011;38714;53.180;5.812;2022-10-16T09:47:31;3.65;;;2.45;;
52848;SDS011;38714;53.180;5.812;2022-10-16T09:50:15;5.97;;;2.40;;
52848;SDS011;38714;53.180;5.812;2022-10-16T09:52:46;3.92;;;2.40;;
52848;SDS011;38714;53.180;5.812;2022-10-16T09:55:13;6.55;;;2.33;;
52848;SDS011;38714;53.180;5.812;2022-10-16T09:57:53;3.63;;;1.98;;
52848;SDS011;38714;53.180;5.812;2022-10-16T10:00:19;5.50;;;2.28;;
52848;SDS011;38714;53.180;5.812;2022-10-16T10:02:46;4.95;;;2.08;;
52848;SDS011;38714;53.180;5.812;2022-10-16T10:05:20;6.53;;;2.20;;
52848;SDS011;38714;53.180;5.812;2022-10-16T10:08:00;8.35;;;3.03;;
52848;SDS011;38714;53.180;5.812;2022-10-16T10:10:32;6.35;;;2.35;;
52848;SDS011;38714;53.180;5.812;2022-10-16T10:12:59;7.18;;;2.50;;
52848;SDS011;38714;53.180;5.812;2022-10-16T10:15:25;13.85;;;3.78;;
52848;SDS011;38714;53.180;5.812;2022-10-16T10:17:58;9.30;;;2.42;;
52848;SDS011;38714;53.180;5.812;2022-10-16T10:20:25;14.93;;;3.45;;
52848;SDS011;38714;53.180;5.812;2022-10-16T10:22:59;12.57;;;3.33;;
52848;SDS011;38714;53.180;5.812;2022-10-16T10:25:41;8.45;;;3.42;;
52848;SDS011;38714;53.180;5.812;2022-10-16T10:31:17;18.10;;;4.03;;
52848;SDS011;38714;53.180;5.812;2022-10-16T10:33:59;7.50;;;2.97;;
52848;SDS011;38714;53.180;5.812;2022-10-16T10:38:54;6.57;;;2.28;;
52848;SDS011;38714;53.180;5.812;2022-10-16T10:50:28;9.77;;;2.75;;
52848;SDS011;38714;53.180;5.812;2022-10-16T10:53:24;6.65;;;2.47;;
52848;SDS011;38714;53.180;5.812;2022-10-16T10:58:53;6.38;;;2.58;;
52848;SDS011;38714;53.180;5.812;2022-10-16T11:01:41;13.20;;;2.40;;
52848;SDS011;38714;53.180;5.812;2022-10-16T11:07:44;10.90;;;2.50;;
52848;SDS011;38714;53.180;5.812;2022-10-16T11:10:15;10.45;;;3.22;;
52848;SDS011;38714;53.180;5.812;2022-10-16T11:15:59;6.30;;;2.78;;
52848;SDS011;38714;53.180;5.812;2022-10-16T11:21:07;6.22;;;2.83;;
52848;SDS011;38714;53.180;5.812;2022-10-16T11:23:37;10.32;;;2.83;;
52848;SDS011;38714;53.180;5.812;2022-10-16T11:26:32;4.68;;;2.28;;
52848;SDS011;38714;53.180;5.812;2022-10-16T11:28:58;23.65;;;3.10;;
52848;SDS011;38714;53.180;5.812;2022-10-16T11:31:29;6.35;;;2.47;;
52848;SDS011;38714;53.180;5.812;2022-10-16T11:34:03;3.28;;;1.83;;
52848;SDS011;38714;53.180;5.812;2022-10-16T11:36:38;10.68;;;2.58;;
52848;SDS011;38714;53.180;5.812;2022-10-16T11:41:47;3.47;;;2.08;;
52848;SDS011;38714;53.180;5.812;2022-10-16T11:49:47;8.07;;;2.38;;
52848;SDS011;38714;53.180;5.812;2022-10-16T11:52:23;8.18;;;2.58;;
52848;SDS011;38714;53.180;5.812;2022-10-16T11:57:44;11.52;;;1.80;;
52848;SDS011;38714;53.180;5.812;2022-10-16T12:03:13;7.97;;;2.10;;
52848;SDS011;38714;53.180;5.812;2022-10-16T12:08:37;4.95;;;1.90;;
52848;SDS011;38714;53.180;5.812;2022-10-16T12:11:08;2.95;;;1.85;;
52848;SDS011;38714;53.180;5.812;2022-10-16T12:13:47;7.93;;;2.00;;
52848;SDS011;38714;53.180;5.812;2022-10-16T12:18:45;2.47;;;2.03;;
52848;SDS011;38714;53.180;5.812;2022-10-16T12:21:15;6.47;;;1.65;;
52848;SDS011;38714;53.180;5.812;2022-10-16T12:23:51;2.05;;;1.83;;
52848;SDS011;38714;53.180;5.812;2022-10-16T12:26:36;6.95;;;2.75;;
52848;SDS011;38714;53.180;5.812;2022-10-16T12:32:02;3.60;;;2.28;;
52848;SDS011;38714;53.180;5.812;2022-10-16T12:34:32;2.30;;;1.23;;
52848;SDS011;38714;53.180;5.812;2022-10-16T12:37:10;7.43;;;2.35;;
52848;SDS011;38714;53.180;5.812;2022-10-16T12:39:39;5.20;;;2.17;;
52848;SDS011;38714;53.180;5.812;2022-10-16T12:42:50;6.68;;;1.90;;
52848;SDS011;38714;53.180;5.812;2022-10-16T12:44:51;3.58;;;2.38;;
52848;SDS011;38714;53.180;5.812;2022-10-16T12:47:35;4.20;;;2.28;;
52848;SDS011;38714;53.180;5.812;2022-10-16T12:50:03;9.23;;;2.40;;
52848;SDS011;38714;53.180;5.812;2022-10-16T12:52:47;11.20;;;2.15;;
52848;SDS011;38714;53.180;5.812;2022-10-16T12:55:17;6.18;;;2.13;;
52848;SDS011;38714;53.180;5.812;2022-10-16T13:00:43;4.90;;;1.83;;
52848;SDS011;38714;53.180;5.812;2022-10-16T13:03:54;7.63;;;2.03;;
52848;SDS011;38714;53.180;5.812;2022-10-16T13:06:13;4.03;;;1.73;;
52848;SDS011;38714;53.180;5.812;2022-10-16T13:09:01;4.03;;;2.35;;
52848;SDS011;38714;53.180;5.812;2022-10-16T13:14:34;6.50;;;2.15;;
52848;SDS011;38714;53.180;5.812;2022-10-16T13:17:23;5.13;;;1.95;;
52848;SDS011;38714;53.180;5.812;2022-10-16T13:20:46;4.15;;;2.25;;
52848;SDS011;38714;53.180;5.812;2022-10-16T13:28:30;5.53;;;2.03;;
52848;SDS011;38714;53.180;5.812;2022-10-16T13:30:58;7.57;;;2.05;;
52848;SDS011;38714;53.180;5.812;2022-10-16T13:35:55;8.05;;;2.35;;
52848;SDS011;38714;53.180;5.812;2022-10-16T13:38:22;4.85;;;3.00;;
52848;SDS011;38714;53.180;5.812;2022-10-16T13:46:10;5.20;;;2.47;;
52848;SDS011;38714;53.180;5.812;2022-10-16T13:48:41;3.53;;;2.25;;
52848;SDS011;38714;53.180;5.812;2022-10-16T13:51:12;7.68;;;2.65;;
52848;SDS011;38714;53.180;5.812;2022-10-16T13:53:42;2.92;;;1.77;;
52848;SDS011;38714;53.180;5.812;2022-10-16T13:56:12;6.13;;;1.48;;
52848;SDS011;38714;53.180;5.812;2022-10-16T13:58:39;3.40;;;1.77;;
52848;SDS011;38714;53.180;5.812;2022-10-16T14:01:14;11.98;;;2.10;;
52848;SDS011;38714;53.180;5.812;2022-10-16T14:03:41;3.83;;;1.52;;
52848;SDS011;38714;53.180;5.812;2022-10-16T14:06:11;9.65;;;1.33;;
52848;SDS011;38714;53.180;5.812;2022-10-16T14:09:02;3.47;;;1.88;;
52848;SDS011;38714;53.180;5.812;2022-10-16T14:11:31;3.30;;;1.90;;
52848;SDS011;38714;53.180;5.812;2022-10-16T14:13:58;5.70;;;1.83;;
52848;SDS011;38714;53.180;5.812;2022-10-16T14:16:28;14.40;;;2.20;;
52848;SDS011;38714;53.180;5.812;2022-10-16T14:21:23;2.67;;;1.42;;
52848;SDS011;38714;53.180;5.812;2022-10-16T14:23:49;3.60;;;1.63;;
52848;SDS011;38714;53.180;5.812;2022-10-16T14:26:17;13.23;;;1.85;;
52848;SDS011;38714;53.180;5.812;2022-10-16T14:28:44;3.47;;;1.55;;
52848;SDS011;38714;53.180;5.812;2022-10-16T14:31:25;4.95;;;2.47;;
52848;SDS011;38714;53.180;5.812;2022-10-16T14:33:55;6.55;;;1.92;;
52848;SDS011;38714;53.180;5.812;2022-10-16T14:36:21;3.03;;;1.08;;
52848;SDS011;38714;53.180;5.812;2022-10-16T14:38:52;3.35;;;1.75;;
52848;SDS011;38714;53.180;5.812;2022-10-16T14:41:29;5.07;;;2.00;;
52848;SDS011;38714;53.180;5.812;2022-10-16T14:44:00;8.77;;;2.40;;
52848;SDS011;38714;53.180;5.812;2022-10-16T14:46:38;13.57;;;3.65;;
52848;SDS011;38714;53.180;5.812;2022-10-16T14:51:37;2.10;;;1.90;;
52848;SDS011;38714;53.180;5.812;2022-10-16T14:54:07;2.72;;;1.58;;
52848;SDS011;38714;53.180;5.812;2022-10-16T14:56:55;7.57;;;1.55;;
52848;SDS011;38714;53.180;5.812;2022-10-16T15:07:42;6.93;;;2.45;;
52848;SDS011;38714;53.180;5.812;2022-10-16T15:10:08;7.97;;;2.03;;
52848;SDS011;38714;53.180;5.812;2022-10-16T15:12:34;9.80;;;2.55;;
52848;SDS011;38714;53.180;5.812;2022-10-16T15:15:00;5.28;;;1.98;;
52848;SDS011;38714;53.180;5.812;2022-10-16T15:17:26;7.20;;;3.50;;
52848;SDS011;38714;53.180;5.812;2022-10-16T15:19:51;6.50;;;2.08;;
52848;SDS011;38714;53.180;5.812;2022-10-16T15:22:17;9.23;;;3.30;;
52848;SDS011;38714;53.180;5.812;2022-10-16T15:24:43;3.47;;;2.03;;
52848;SDS011;38714;53.180;5.812;2022-10-16T15:27:08;8.98;;;2.17;;
52848;SDS011;38714;53.180;5.812;2022-10-16T15:29:34;4.18;;;1.75;;
52848;SDS011;38714;53.180;5.812;2022-10-16T15:32:00;3.13;;;1.65;;
52848;SDS011;38714;53.180;5.812;2022-10-16T15:34:25;5.05;;;1.90;;
52848;SDS011;38714;53.180;5.812;2022-10-16T15:36:51;3.88;;;2.00;;
52848;SDS011;38714;53.180;5.812;2022-10-16T15:39:17;4.38;;;2.00;;
52848;SDS011;38714;53.180;5.812;2022-10-16T15:41:45;4.53;;;1.58;;
52848;SDS011;38714;53.180;5.812;2022-10-16T15:44:19;5.82;;;2.33;;
52848;SDS011;38714;53.180;5.812;2022-10-16T15:46:47;4.75;;;2.25;;
52848;SDS011;38714;53.180;5.812;2022-10-16T15:49:13;8.00;;;2.78;;
52848;SDS011;38714;53.180;5.812;2022-10-16T15:51:39;6.75;;;2.25;;
52848;SDS011;38714;53.180;5.812;2022-10-16T15:54:06;6.55;;;2.17;;
52848;SDS011;38714;53.180;5.812;2022-10-16T15:56:32;2.92;;;1.65;;
52848;SDS011;38714;53.180;5.812;2022-10-16T15:58:59;7.25;;;2.58;;
52848;SDS011;38714;53.180;5.812;2022-10-16T16:01:25;10.50;;;1.80;;
52848;SDS011;38714;53.180;5.812;2022-10-16T16:04:00;4.97;;;2.00;;
52848;SDS011;38714;53.180;5.812;2022-10-16T16:06:25;4.55;;;2.38;;
52848;SDS011;38714;53.180;5.812;2022-10-16T16:08:51;5.82;;;2.80;;
52848;SDS011;38714;53.180;5.812;2022-10-16T16:11:18;2.35;;;1.35;;
52848;SDS011;38714;53.180;5.812;2022-10-16T16:13:44;4.55;;;1.95;;
52848;SDS011;38714;53.180;5.812;2022-10-16T16:16:14;3.35;;;1.90;;
52848;SDS011;38714;53.180;5.812;2022-10-16T16:18:41;4.07;;;2.20;;
52848;SDS011;38714;53.180;5.812;2022-10-16T16:21:08;5.13;;;2.33;;
52848;SDS011;38714;53.180;5.812;2022-10-16T16:23:36;3.55;;;2.08;;
52848;SDS011;38714;53.180;5.812;2022-10-16T16:26:24;6.68;;;2.85;;
52848;SDS011;38714;53.180;5.812;2022-10-16T16:28:51;2.85;;;1.63;;
52848;SDS011;38714;53.180;5.812;2022-10-16T16:31:17;7.22;;;2.42;;
52848;SDS011;38714;53.180;5.812;2022-10-16T16:33:43;5.50;;;1.85;;
52848;SDS011;38714;53.180;5.812;2022-10-16T16:36:09;8.07;;;2.40;;
52848;SDS011;38714;53.180;5.812;2022-10-16T16:38:34;1.88;;;1.65;;
52848;SDS011;38714;53.180;5.812;2022-10-16T16:41:10;4.93;;;1.67;;
52848;SDS011;38714;53.180;5.812;2022-10-16T16:43:36;9.98;;;2.22;;
52848;SDS011;38714;53.180;5.812;2022-10-16T16:46:02;4.30;;;2.28;;
52848;SDS011;38714;53.180;5.812;2022-10-16T16:48:28;4.10;;;2.13;;
52848;SDS011;38714;53.180;5.812;2022-10-16T16:50:53;4.78;;;2.33;;
52848;SDS011;38714;53.180;5.812;2022-10-16T16:53:19;7.63;;;2.42;;
52848;SDS011;38714;53.180;5.812;2022-10-16T16:55:44;7.35;;;2.60;;
52848;SDS011;38714;53.180;5.812;2022-10-16T16:58:10;2.95;;;2.10;;
52848;SDS011;38714;53.180;5.812;2022-10-16T17:00:36;8.02;;;2.80;;
52848;SDS011;38714;53.180;5.812;2022-10-16T17:03:02;10.73;;;2.22;;
52848;SDS011;38714;53.180;5.812;2022-10-16T17:05:27;5.10;;;2.00;;